createdAt,value
2023-01-29T00:00:06.447Z,9.463167
2023-01-29T00:01:06.479Z,9.463067
2023-01-29T00:02:06.544Z,9.463186
2023-01-29T00:03:06.501Z,9.463141
2023-01-29T00:04:06.432Z,9.463140
2023-01-29T00:05:25.434Z,9.463099
2023-01-29T00:06:07.449Z,9.463181
2023-01-29T00:07:06.417Z,9.463109
2023-01-29T00:08:06.410Z,9.463155
2023-01-29T00:09:06.512Z,9.463107
2023-01-29T00:10:06.437Z,9.463129
2023-01-29T00:11:06.403Z,9.463081
2023-01-29T00:12:06.420Z,9.463110
2023-01-29T00:13:06.402Z,9.463099
2023-01-29T00:14:06.383Z,9.463105
2023-01-29T00:15:06.387Z,9.463184
2023-01-29T00:16:06.456Z,9.462949
2023-01-29T00:17:06.476Z,9.463028
2023-01-29T00:18:06.402Z,9.462957
2023-01-29T00:19:06.357Z,9.462870
2023-01-29T00:20:06.354Z,9.462894
2023-01-29T00:21:06.327Z,9.463004
2023-01-29T00:22:06.353Z,9.463190
2023-01-29T00:23:06.341Z,9.463078
2023-01-29T00:24:06.467Z,9.463046
2023-01-29T00:25:06.343Z,9.463008
2023-01-29T00:26:06.411Z,9.463029
2023-01-29T00:27:06.318Z,9.462937
2023-01-29T00:28:06.357Z,9.462980
2023-01-29T00:29:06.323Z,9.462885
2023-01-29T00:30:06.291Z,9.462921
2023-01-29T00:31:06.447Z,9.463067
2023-01-29T00:32:06.480Z,9.463032
2023-01-29T00:33:06.296Z,9.463019
2023-01-29T00:34:06.284Z,9.463009
2023-01-29T00:35:06.390Z,9.462972
2023-01-29T00:36:06.276Z,9.463023
2023-01-29T00:37:06.253Z,9.462936
2023-01-29T00:38:06.251Z,9.462934
2023-01-29T00:39:06.261Z,9.462995
2023-01-29T00:40:06.343Z,9.462883
2023-01-29T00:41:06.227Z,9.463032
2023-01-29T00:42:06.271Z,9.463128
2023-01-29T00:43:06.296Z,9.463003
2023-01-29T00:44:06.224Z,9.463039
2023-01-29T00:45:06.401Z,9.463208
2023-01-29T00:46:06.228Z,9.463146
2023-01-29T00:47:06.193Z,9.463018
2023-01-29T00:48:06.205Z,9.463048
2023-01-29T00:49:06.201Z,9.462971
2023-01-29T00:50:06.180Z,9.462802
2023-01-29T00:51:06.187Z,9.462879
2023-01-29T00:52:06.161Z,9.462947
2023-01-29T00:53:06.200Z,9.463049
2023-01-29T00:54:06.209Z,9.462866
2023-01-29T00:55:06.231Z,9.462952
2023-01-29T00:56:06.131Z,9.462952
2023-01-29T00:57:06.166Z,9.462820
2023-01-29T00:58:06.146Z,9.462946
2023-01-29T00:59:06.180Z,9.462946
2023-01-29T01:00:06.159Z,9.462946
2023-01-29T01:01:06.156Z,9.462946
2023-01-29T01:02:06.200Z,9.462946
2023-01-29T01:03:06.171Z,9.462938
2023-01-29T01:04:06.095Z,9.462998
2023-01-29T01:05:06.179Z,9.462923
2023-01-29T01:06:06.080Z,9.462897
2023-01-29T01:07:06.126Z,9.462920
2023-01-29T01:08:06.101Z,9.462941
2023-01-29T01:09:06.052Z,9.463004
2023-01-29T01:10:06.108Z,9.462917
2023-01-29T01:11:06.085Z,9.462990
2023-01-29T01:12:06.064Z,9.462990
2023-01-29T01:13:06.067Z,9.462949
2023-01-29T01:14:06.047Z,9.462958
2023-01-29T01:15:06.450Z,9.462808
2023-01-29T01:16:06.057Z,9.462915
2023-01-29T01:17:06.044Z,9.462893
2023-01-29T01:18:06.024Z,9.462915
2023-01-29T01:19:06.056Z,9.462929
2023-01-29T01:20:06.053Z,9.462857
2023-01-29T01:21:06.024Z,9.462853
2023-01-29T01:22:05.997Z,9.462955
2023-01-29T01:23:05.992Z,9.463005
2023-01-29T01:24:06.046Z,9.462990
2023-01-29T01:25:06.138Z,9.463260
2023-01-29T01:26:06.128Z,9.463013
2023-01-29T01:27:05.974Z,9.462877
2023-01-29T01:28:05.977Z,9.462955
2023-01-29T01:29:05.956Z,9.463142
2023-01-29T01:30:05.971Z,9.463205
2023-01-29T01:31:06.080Z,9.462934
2023-01-29T01:32:05.969Z,9.462969
2023-01-29T01:33:05.956Z,9.463170
2023-01-29T01:34:05.936Z,9.463046
2023-01-29T01:35:05.920Z,9.463323
2023-01-29T01:36:05.977Z,9.463202
2023-01-29T01:37:05.896Z,9.463087
2023-01-29T01:38:05.960Z,9.462913
2023-01-29T01:39:06.015Z,9.462857
2023-01-29T01:40:05.947Z,9.462724
2023-01-29T01:41:06.057Z,9.462589
2023-01-29T01:42:05.925Z,9.462582
2023-01-29T01:43:06.412Z,9.462608
2023-01-29T01:44:05.954Z,9.462513
2023-01-29T01:45:05.873Z,9.462237
2023-01-29T01:46:05.987Z,9.462338
2023-01-29T01:47:05.854Z,9.462273
2023-01-29T01:48:05.897Z,9.462302
2023-01-29T01:49:05.821Z,9.462273
2023-01-29T01:50:05.844Z,9.462186
2023-01-29T01:51:05.831Z,9.462065
2023-01-29T01:52:05.811Z,9.461688
2023-01-29T01:53:05.825Z,9.461688
2023-01-29T01:54:05.800Z,9.461688
2023-01-29T01:55:05.843Z,9.461688
2023-01-29T01:56:05.831Z,9.461688
2023-01-29T01:57:05.783Z,9.461688
2023-01-29T01:58:05.842Z,9.461688
2023-01-29T01:59:05.784Z,9.461688
2023-01-29T02:00:05.806Z,9.461688
2023-01-29T02:01:05.884Z,9.462908
2023-01-29T02:02:05.798Z,9.462927
2023-01-29T02:03:05.782Z,9.462955
2023-01-29T02:04:05.771Z,9.462962
2023-01-29T02:05:05.761Z,9.462955
2023-01-29T02:06:05.759Z,9.462955
2023-01-29T02:07:05.755Z,9.462932
2023-01-29T02:08:05.730Z,9.463068
2023-01-29T02:09:05.712Z,9.463011
2023-01-29T02:10:05.727Z,9.462964
2023-01-29T02:11:05.702Z,9.462977
2023-01-29T02:12:05.723Z,9.462976
2023-01-29T02:13:05.697Z,9.463039
2023-01-29T02:14:05.969Z,9.462935
2023-01-29T02:15:05.703Z,9.462955
2023-01-29T02:16:05.753Z,9.463039
2023-01-29T02:17:05.721Z,9.463109
2023-01-29T02:18:05.688Z,9.463020
2023-01-29T02:19:05.682Z,9.462855
2023-01-29T02:20:05.690Z,9.463099
2023-01-29T02:21:05.633Z,9.463037
2023-01-29T02:22:05.642Z,9.462992
2023-01-29T02:23:05.654Z,9.462964
2023-01-29T02:24:06.067Z,9.462972
2023-01-29T02:25:05.720Z,9.462990
2023-01-29T02:26:05.613Z,9.462959
2023-01-29T02:27:05.622Z,9.463010
2023-01-29T02:28:05.614Z,9.462936
2023-01-29T02:29:05.594Z,9.463083
2023-01-29T02:30:05.689Z,9.462790
2023-01-29T02:31:05.941Z,9.463193
2023-01-29T02:32:05.650Z,9.463190
2023-01-29T02:33:05.578Z,9.463163
2023-01-29T02:34:05.602Z,9.462955
2023-01-29T02:35:05.568Z,9.463024
2023-01-29T02:36:05.578Z,9.462874
2023-01-29T02:37:05.584Z,9.462812
2023-01-29T02:38:05.523Z,9.462879
2023-01-29T02:39:05.574Z,9.462566
2023-01-29T02:40:05.558Z,9.462784
2023-01-29T02:41:05.535Z,9.462816
2023-01-29T02:42:05.510Z,9.463008
2023-01-29T02:43:05.503Z,9.463038
2023-01-29T02:44:05.514Z,9.462940
2023-01-29T02:45:05.545Z,9.463001
2023-01-29T02:46:05.615Z,9.463063
2023-01-29T02:47:05.502Z,9.462916
2023-01-29T02:48:05.496Z,9.462985
2023-01-29T02:49:05.497Z,9.462878
2023-01-29T02:50:05.460Z,9.462834
2023-01-29T02:51:05.492Z,9.462925
2023-01-29T02:52:05.557Z,9.462946
2023-01-29T02:53:26.485Z,9.463027
2023-01-29T02:54:05.450Z,9.463027
2023-01-29T02:55:05.439Z,9.463007
2023-01-29T02:56:05.418Z,9.462884
2023-01-29T02:57:05.486Z,9.462856
2023-01-29T02:58:05.422Z,9.462895
2023-01-29T02:59:05.440Z,9.462895
2023-01-29T03:00:05.464Z,9.462959
2023-01-29T03:01:05.411Z,9.462886
2023-01-29T03:02:05.423Z,9.462903
2023-01-29T03:03:05.406Z,9.462955
2023-01-29T03:04:05.381Z,9.463002
2023-01-29T03:05:05.371Z,9.462922
2023-01-29T03:06:05.363Z,9.462858
2023-01-29T03:07:05.365Z,9.462883
2023-01-29T03:08:05.437Z,9.462846
2023-01-29T03:09:05.385Z,9.462787
2023-01-29T03:10:05.332Z,9.463058
2023-01-29T03:11:05.358Z,9.462987
2023-01-29T03:12:05.328Z,9.462975
2023-01-29T03:13:05.328Z,9.462848
2023-01-29T03:14:05.334Z,9.462970
2023-01-29T03:15:05.302Z,9.462897
2023-01-29T03:16:05.349Z,9.462939
2023-01-29T03:17:05.380Z,9.462879
2023-01-29T03:18:05.301Z,9.462891
2023-01-29T03:19:05.481Z,9.462741
2023-01-29T03:20:05.279Z,9.462848
2023-01-29T03:21:05.303Z,9.462901
2023-01-29T03:22:05.272Z,9.462991
2023-01-29T03:23:05.267Z,9.462997
2023-01-29T03:24:05.271Z,9.463186
2023-01-29T03:25:05.270Z,9.463083
2023-01-29T03:26:05.337Z,9.462974
2023-01-29T03:27:05.241Z,9.463001
2023-01-29T03:28:05.268Z,9.462981
2023-01-29T03:29:05.304Z,9.462970
2023-01-29T03:30:05.241Z,9.462962
2023-01-29T03:31:05.395Z,9.463065
2023-01-29T03:32:05.282Z,9.462971
2023-01-29T03:33:05.213Z,9.462851
2023-01-29T03:34:05.250Z,9.462905
2023-01-29T03:35:05.242Z,9.462816
2023-01-29T03:36:05.319Z,9.462922
2023-01-29T03:37:05.201Z,9.462991
2023-01-29T03:38:05.164Z,9.462853
2023-01-29T03:39:05.228Z,9.462978
2023-01-29T03:40:05.175Z,9.462912
2023-01-29T03:41:05.163Z,9.462851
2023-01-29T03:42:05.326Z,9.462684
2023-01-29T03:43:05.129Z,9.462526
2023-01-29T03:44:05.166Z,9.463049
2023-01-29T03:45:05.144Z,9.463140
2023-01-29T03:46:05.238Z,9.463066
2023-01-29T03:47:05.141Z,9.462976
2023-01-29T03:48:05.151Z,9.463096
2023-01-29T03:49:05.117Z,9.463222
2023-01-29T03:50:05.150Z,9.463182
2023-01-29T03:51:05.157Z,9.463284
2023-01-29T03:52:05.086Z,9.463239
2023-01-29T03:53:05.166Z,9.463129
2023-01-29T03:54:05.098Z,9.463225
2023-01-29T03:55:05.064Z,9.463005
2023-01-29T03:56:05.118Z,9.463045
2023-01-29T03:57:05.092Z,9.462934
2023-01-29T03:58:05.071Z,9.463278
2023-01-29T03:59:05.111Z,9.463571
2023-01-29T04:00:05.093Z,9.463256
2023-01-29T04:01:05.290Z,9.463146
2023-01-29T04:02:05.032Z,9.463510
2023-01-29T04:03:05.038Z,9.463306
2023-01-29T04:04:05.139Z,9.463272
2023-01-29T04:05:05.036Z,9.463333
2023-01-29T04:06:05.031Z,9.463372
2023-01-29T04:07:05.049Z,9.463282
2023-01-29T04:08:05.024Z,9.463234
2023-01-29T04:09:05.018Z,9.462967
2023-01-29T04:10:05.032Z,9.463168
2023-01-29T04:11:05.006Z,9.463038
2023-01-29T04:12:04.975Z,9.463210
2023-01-29T04:13:05.005Z,9.462997
2023-01-29T04:14:04.964Z,9.463022
2023-01-29T04:15:05.028Z,9.463058
2023-01-29T04:16:05.071Z,9.463072
2023-01-29T04:17:04.940Z,9.463068
2023-01-29T04:18:05.003Z,9.463058
2023-01-29T04:19:04.974Z,9.463019
2023-01-29T04:20:04.949Z,9.463060
2023-01-29T04:21:04.928Z,9.463042
2023-01-29T04:22:04.966Z,9.463021
2023-01-29T04:23:04.921Z,9.463052
2023-01-29T04:24:05.029Z,9.463033
2023-01-29T04:25:04.919Z,9.463046
2023-01-29T04:26:04.938Z,9.463082
2023-01-29T04:27:04.895Z,9.463059
2023-01-29T04:28:04.902Z,9.463014
2023-01-29T04:29:04.891Z,9.463031
2023-01-29T04:30:04.910Z,9.463009
2023-01-29T04:31:05.022Z,9.463061
2023-01-29T04:32:04.884Z,9.463050
2023-01-29T04:33:04.860Z,9.463085
2023-01-29T04:34:04.886Z,9.463072
2023-01-29T04:35:05.134Z,9.463063
2023-01-29T04:36:04.845Z,9.463065
2023-01-29T04:37:04.853Z,9.462996
2023-01-29T04:38:04.839Z,9.463013
2023-01-29T04:39:04.972Z,9.462988
2023-01-29T04:40:04.816Z,9.462992
2023-01-29T04:41:04.816Z,9.463002
2023-01-29T04:42:04.902Z,9.462980
2023-01-29T04:43:04.823Z,9.463004
2023-01-29T04:44:04.827Z,9.462999
2023-01-29T04:45:04.799Z,9.463022
2023-01-29T04:46:04.796Z,9.463047
2023-01-29T04:47:04.897Z,9.463015
2023-01-29T04:48:04.773Z,9.462969
2023-01-29T04:49:04.770Z,9.463004
2023-01-29T04:50:04.843Z,9.463038
2023-01-29T04:51:04.764Z,9.463058
2023-01-29T04:52:04.884Z,9.463002
2023-01-29T04:53:04.782Z,9.463170
2023-01-29T04:54:04.858Z,9.463091
2023-01-29T04:55:04.725Z,9.463161
2023-01-29T04:56:04.763Z,9.463301
2023-01-29T04:57:04.708Z,9.463571
2023-01-29T04:58:04.793Z,9.463309
2023-01-29T04:59:04.712Z,9.463512
2023-01-29T05:00:04.741Z,9.463486
2023-01-29T05:01:04.711Z,9.463298
2023-01-29T05:02:04.701Z,9.463201
2023-01-29T05:03:04.801Z,9.463115
2023-01-29T05:04:04.711Z,9.463067
2023-01-29T05:05:04.663Z,9.463094
2023-01-29T05:06:04.676Z,9.463410
2023-01-29T05:07:04.675Z,9.463275
2023-01-29T05:08:04.679Z,9.463058
2023-01-29T05:09:04.659Z,9.462999
2023-01-29T05:10:04.678Z,9.463006
2023-01-29T05:11:04.637Z,9.462927
2023-01-29T05:12:04.695Z,9.462954
2023-01-29T05:13:04.637Z,9.462943
2023-01-29T05:14:04.622Z,9.462900
2023-01-29T05:15:04.599Z,9.462876
2023-01-29T05:16:04.656Z,9.462937
2023-01-29T05:17:04.597Z,9.462938
2023-01-29T05:18:04.627Z,9.462958
2023-01-29T05:19:04.741Z,9.462985
2023-01-29T05:20:04.582Z,9.462931
2023-01-29T05:21:04.579Z,9.462915
2023-01-29T05:22:04.571Z,9.462985
2023-01-29T05:23:04.579Z,9.462925
2023-01-29T05:24:04.614Z,9.462721
2023-01-29T05:25:04.540Z,9.462820
2023-01-29T05:26:04.584Z,9.462884
2023-01-29T05:27:04.560Z,9.462974
2023-01-29T05:28:04.576Z,9.462878
2023-01-29T05:29:04.633Z,9.462730
2023-01-29T05:30:04.540Z,9.462827
2023-01-29T05:31:04.635Z,9.463004
2023-01-29T05:32:04.541Z,9.462889
2023-01-29T05:33:04.542Z,9.462908
2023-01-29T05:34:04.538Z,9.462903
2023-01-29T05:35:04.507Z,9.462837
2023-01-29T05:36:06.154Z,9.462917
2023-01-29T05:37:04.488Z,9.462847
2023-01-29T05:38:04.488Z,9.462854
2023-01-29T05:39:04.474Z,9.462800
2023-01-29T05:40:04.491Z,9.462968
2023-01-29T05:41:04.489Z,9.462878
2023-01-29T05:42:04.457Z,9.462961
2023-01-29T05:43:04.443Z,9.462928
2023-01-29T05:44:04.465Z,9.462893
2023-01-29T05:45:04.527Z,9.462979
2023-01-29T05:46:04.443Z,9.462907
2023-01-29T05:47:04.457Z,9.462877
2023-01-29T05:48:04.422Z,9.462910
2023-01-29T05:49:04.478Z,9.462953
2023-01-29T05:50:04.467Z,9.462933
2023-01-29T05:51:04.394Z,9.462883
2023-01-29T05:52:04.417Z,9.462903
2023-01-29T05:53:04.387Z,9.462923
2023-01-29T05:54:04.416Z,9.462928
2023-01-29T05:55:04.386Z,9.462919
2023-01-29T05:56:04.372Z,9.462887
2023-01-29T05:57:04.384Z,9.462918
2023-01-29T05:58:05.952Z,9.462820
2023-01-29T05:59:04.364Z,9.462931
2023-01-29T06:00:04.527Z,9.462908
2023-01-29T06:01:04.351Z,9.462917
2023-01-29T06:02:04.513Z,9.462963
2023-01-29T06:03:04.403Z,9.462883
2023-01-29T06:04:04.380Z,9.462849
2023-01-29T06:05:04.433Z,9.462864
2023-01-29T06:06:04.414Z,9.462922
2023-01-29T06:07:04.375Z,9.462913
2023-01-29T06:08:04.361Z,9.462889
2023-01-29T06:09:04.315Z,9.462947
2023-01-29T06:10:04.300Z,9.462911
2023-01-29T06:11:04.419Z,9.462962
2023-01-29T06:12:04.333Z,9.462976
2023-01-29T06:13:04.293Z,9.462912
2023-01-29T06:14:04.274Z,9.462934
2023-01-29T06:15:04.296Z,9.462927
2023-01-29T06:16:04.318Z,9.462848
2023-01-29T06:17:04.280Z,9.462901
2023-01-29T06:18:04.269Z,9.463005
2023-01-29T06:19:04.304Z,9.462880
2023-01-29T06:20:04.235Z,9.462912
2023-01-29T06:21:04.263Z,9.462862
2023-01-29T06:22:04.311Z,9.462735
2023-01-29T06:23:04.265Z,9.462785
2023-01-29T06:24:04.332Z,9.462714
2023-01-29T06:25:04.209Z,9.462719
2023-01-29T06:26:04.274Z,9.462843
2023-01-29T06:27:04.301Z,9.462924
2023-01-29T06:28:04.242Z,9.462896
2023-01-29T06:29:04.207Z,9.462834
2023-01-29T06:30:04.189Z,9.462994
2023-01-29T06:31:23.833Z,9.462895
2023-01-29T06:32:05.259Z,9.463012
2023-01-29T06:33:04.178Z,9.462885
2023-01-29T06:34:04.167Z,9.462972
2023-01-29T06:35:04.205Z,9.462817
2023-01-29T06:36:04.184Z,9.462866
2023-01-29T06:37:04.186Z,9.462865
2023-01-29T06:38:04.173Z,9.462981
2023-01-29T06:39:04.178Z,9.462969
2023-01-29T06:40:04.234Z,9.462963
2023-01-29T06:41:04.165Z,9.462862
2023-01-29T06:42:04.146Z,9.462981
2023-01-29T06:43:04.109Z,9.462957
2023-01-29T06:44:04.191Z,9.462934
2023-01-29T06:45:04.127Z,9.463005
2023-01-29T06:46:04.123Z,9.463093
2023-01-29T06:47:04.124Z,9.463025
2023-01-29T06:48:04.100Z,9.463153
2023-01-29T06:49:04.478Z,9.463059
2023-01-29T06:50:04.123Z,9.463099
2023-01-29T06:51:04.090Z,9.463294
2023-01-29T06:52:04.095Z,9.463226
2023-01-29T06:53:04.044Z,9.463080
2023-01-29T06:54:04.045Z,9.463090
2023-01-29T06:55:04.099Z,9.462948
2023-01-29T06:56:04.046Z,9.463131
2023-01-29T06:57:04.039Z,9.463030
2023-01-29T06:58:04.060Z,9.462705
2023-01-29T06:59:04.044Z,9.462522
2023-01-29T07:00:04.021Z,9.462998
2023-01-29T07:01:04.059Z,9.462866
2023-01-29T07:02:04.113Z,9.463063
2023-01-29T07:03:04.107Z,9.462998
2023-01-29T07:04:04.082Z,9.463149
2023-01-29T07:05:03.993Z,9.463165
2023-01-29T07:06:03.979Z,9.463121
2023-01-29T07:07:03.967Z,9.463152
2023-01-29T07:08:03.956Z,9.463150
2023-01-29T07:09:04.004Z,9.463093
2023-01-29T07:10:03.955Z,9.463101
2023-01-29T07:11:03.982Z,9.463106
2023-01-29T07:12:03.966Z,9.463091
2023-01-29T07:13:03.942Z,9.463058
2023-01-29T07:14:03.930Z,9.463078
2023-01-29T07:15:03.986Z,9.463012
2023-01-29T07:16:03.956Z,9.463048
2023-01-29T07:17:03.905Z,9.463045
2023-01-29T07:18:03.908Z,9.463054
2023-01-29T07:19:03.904Z,9.463136
2023-01-29T07:20:03.977Z,9.463093
2023-01-29T07:21:03.920Z,9.462960
2023-01-29T07:22:03.911Z,9.463017
2023-01-29T07:23:03.934Z,9.463125
2023-01-29T07:24:03.966Z,9.463068
2023-01-29T07:25:03.877Z,9.462959
2023-01-29T07:26:03.853Z,9.463017
2023-01-29T07:27:03.874Z,9.463038
2023-01-29T07:28:03.849Z,9.463041
2023-01-29T07:29:03.853Z,9.462967
2023-01-29T07:30:03.852Z,9.463024
2023-01-29T07:31:03.907Z,9.463021
2023-01-29T07:32:04.002Z,9.462995
2023-01-29T07:33:05.871Z,9.463017
2023-01-29T07:34:03.810Z,9.462965
2023-01-29T07:35:03.829Z,9.462976
2023-01-29T07:36:03.804Z,9.463008
2023-01-29T07:37:03.833Z,9.463048
2023-01-29T07:38:03.830Z,9.463070
2023-01-29T07:39:03.769Z,9.463003
2023-01-29T07:40:03.785Z,9.462996
2023-01-29T07:41:03.845Z,9.463000
2023-01-29T07:42:03.789Z,9.463004
2023-01-29T07:43:03.847Z,9.463021
2023-01-29T07:44:03.754Z,9.463053
2023-01-29T07:45:03.769Z,9.463072
2023-01-29T07:46:03.867Z,9.463029
2023-01-29T07:47:03.727Z,9.463037
2023-01-29T07:48:03.730Z,9.463055
2023-01-29T07:49:03.798Z,9.463025
2023-01-29T07:50:03.749Z,9.463019
2023-01-29T07:51:03.734Z,9.463053
2023-01-29T07:52:03.745Z,9.463073
2023-01-29T07:53:03.692Z,9.463078
2023-01-29T07:54:03.733Z,9.463111
2023-01-29T07:55:03.728Z,9.463068
2023-01-29T07:56:03.685Z,9.463049
2023-01-29T07:57:03.708Z,9.463078
2023-01-29T07:58:03.693Z,9.463080
2023-01-29T07:59:03.659Z,9.463126
2023-01-29T08:00:03.690Z,9.462956
2023-01-29T08:01:03.673Z,9.463064
2023-01-29T08:02:03.758Z,9.463047
2023-01-29T08:03:03.647Z,9.463114
2023-01-29T08:04:03.655Z,9.463178
2023-01-29T08:05:03.700Z,9.462990
2023-01-29T08:06:03.640Z,9.462987
2023-01-29T08:07:03.630Z,9.463063
2023-01-29T08:08:07.397Z,9.462993
2023-01-29T08:09:03.609Z,9.463030
2023-01-29T08:10:03.620Z,9.463017
2023-01-29T08:11:03.660Z,9.463024
2023-01-29T08:12:03.692Z,9.463058
2023-01-29T08:13:03.594Z,9.463020
2023-01-29T08:14:03.683Z,9.463069
2023-01-29T08:15:03.620Z,9.463025
2023-01-29T08:16:03.577Z,9.463032
2023-01-29T08:17:03.562Z,9.463087
2023-01-29T08:18:03.596Z,9.463124
2023-01-29T08:19:03.551Z,9.463102
2023-01-29T08:20:03.592Z,9.463068
2023-01-29T08:21:03.768Z,9.463040
2023-01-29T08:22:03.541Z,9.463019
2023-01-29T08:23:03.527Z,9.463005
2023-01-29T08:24:03.604Z,9.463000
2023-01-29T08:25:20.938Z,9.462976
2023-01-29T08:26:04.572Z,9.463001
2023-01-29T08:27:03.513Z,9.463014
2023-01-29T08:28:03.492Z,9.463036
2023-01-29T08:29:03.511Z,9.463028
2023-01-29T08:30:03.504Z,9.463049
2023-01-29T08:31:03.527Z,9.463011
2023-01-29T08:32:03.543Z,9.462981
2023-01-29T08:33:03.452Z,9.463026
2023-01-29T08:34:03.532Z,9.463030
2023-01-29T08:35:03.454Z,9.462996
2023-01-29T08:36:03.434Z,9.462994
2023-01-29T08:37:03.535Z,9.463024
2023-01-29T08:38:03.491Z,9.463036
2023-01-29T08:39:03.423Z,9.463087
2023-01-29T08:40:03.505Z,9.463122
2023-01-29T08:41:03.457Z,9.462973
2023-01-29T08:42:03.416Z,9.463021
2023-01-29T08:43:04.495Z,9.462996
2023-01-29T08:44:03.418Z,9.462997
2023-01-29T08:45:03.466Z,9.462926
2023-01-29T08:46:03.561Z,9.463004
2023-01-29T08:47:03.393Z,9.463007
2023-01-29T08:48:03.429Z,9.463060
2023-01-29T08:49:03.388Z,9.463037
2023-01-29T08:50:03.441Z,9.463033
2023-01-29T08:51:03.354Z,9.462939
2023-01-29T08:52:04.018Z,9.462928
2023-01-29T08:53:03.352Z,9.462926
2023-01-29T08:54:03.403Z,9.463150
2023-01-29T08:55:03.356Z,9.463071
2023-01-29T08:56:03.330Z,9.463015
2023-01-29T08:57:03.343Z,9.463068
2023-01-29T08:58:03.329Z,9.462936
2023-01-29T08:59:03.595Z,9.462972
2023-01-29T09:00:03.363Z,9.462891
2023-01-29T09:01:03.327Z,9.462996
2023-01-29T09:02:03.337Z,9.463300
2023-01-29T09:03:03.292Z,9.463108
2023-01-29T09:04:03.309Z,9.462997
2023-01-29T09:05:03.284Z,9.463056
2023-01-29T09:06:03.301Z,9.462743
2023-01-29T09:07:03.277Z,9.462518
2023-01-29T09:08:03.253Z,9.462881
2023-01-29T09:09:03.272Z,9.462729
2023-01-29T09:10:03.321Z,9.462844
2023-01-29T09:11:03.232Z,9.462800
2023-01-29T09:12:03.303Z,9.462810
2023-01-29T09:13:03.259Z,9.462741
2023-01-29T09:14:03.246Z,9.462787
2023-01-29T09:15:03.249Z,9.462829
2023-01-29T09:16:03.303Z,9.463024
2023-01-29T09:17:03.215Z,9.463119
2023-01-29T09:18:03.277Z,9.462998
2023-01-29T09:19:03.216Z,9.463548
2023-01-29T09:20:03.256Z,9.463201
2023-01-29T09:21:03.232Z,9.463336
2023-01-29T09:22:03.168Z,9.463277
2023-01-29T09:23:03.280Z,9.463159
2023-01-29T09:24:03.170Z,9.463041
2023-01-29T09:25:03.326Z,9.463060
2023-01-29T09:26:03.160Z,9.462855
2023-01-29T09:27:03.187Z,9.462895
2023-01-29T09:28:03.169Z,9.462991
2023-01-29T09:29:03.149Z,9.462957
2023-01-29T09:30:03.173Z,9.462840
2023-01-29T09:31:03.367Z,9.462751
2023-01-29T09:32:03.168Z,9.462674
2023-01-29T09:33:03.098Z,9.462610
2023-01-29T09:34:03.146Z,9.462664
2023-01-29T09:35:03.198Z,9.463054
2023-01-29T09:36:03.089Z,9.463031
2023-01-29T09:37:03.118Z,9.462979
2023-01-29T09:38:03.090Z,9.463064
2023-01-29T09:39:03.099Z,9.462994
2023-01-29T09:40:03.046Z,9.462938
2023-01-29T09:41:03.053Z,9.462790
2023-01-29T09:42:03.300Z,9.462939
2023-01-29T09:43:03.048Z,9.462976
2023-01-29T09:44:03.035Z,9.462902
2023-01-29T09:45:03.037Z,9.462919
2023-01-29T09:46:03.044Z,9.463002
2023-01-29T09:47:03.050Z,9.463216
2023-01-29T09:48:03.022Z,9.462993
2023-01-29T09:49:03.012Z,9.463020
2023-01-29T09:50:03.061Z,9.462774
2023-01-29T09:51:02.993Z,9.462990
2023-01-29T09:52:03.022Z,9.462939
2023-01-29T09:53:03.029Z,9.462848
2023-01-29T09:54:02.980Z,9.462889
2023-01-29T09:55:02.989Z,9.462904
2023-01-29T09:56:02.991Z,9.462952
2023-01-29T09:57:02.964Z,9.462895
2023-01-29T09:58:02.944Z,9.462961
2023-01-29T09:59:02.960Z,9.463066
2023-01-29T10:00:02.921Z,9.463028
2023-01-29T10:01:02.983Z,9.462924
2023-01-29T10:02:03.030Z,9.462940
2023-01-29T10:03:02.947Z,9.462886
2023-01-29T10:04:02.999Z,9.462886
2023-01-29T10:05:02.897Z,9.462887
2023-01-29T10:06:02.892Z,9.462894
2023-01-29T10:07:02.913Z,9.462894
2023-01-29T10:08:02.911Z,9.462925
2023-01-29T10:09:03.094Z,9.462862
2023-01-29T10:10:02.891Z,9.462853
2023-01-29T10:11:02.864Z,9.462841
2023-01-29T10:12:02.852Z,9.462871
2023-01-29T10:13:02.856Z,9.462863
2023-01-29T10:14:02.840Z,9.462850
2023-01-29T10:15:02.843Z,9.462924
2023-01-29T10:16:02.844Z,9.462919
2023-01-29T10:17:02.979Z,9.462929
2023-01-29T10:18:02.798Z,9.462911
2023-01-29T10:19:02.806Z,9.462910
2023-01-29T10:20:02.791Z,9.462914
2023-01-29T10:21:02.836Z,9.462909
2023-01-29T10:22:02.780Z,9.462877
2023-01-29T10:23:02.791Z,9.462871
2023-01-29T10:24:02.862Z,9.462943
2023-01-29T10:25:02.774Z,9.462953
2023-01-29T10:26:02.790Z,9.462925
2023-01-29T10:27:02.797Z,9.463017
2023-01-29T10:28:02.780Z,9.462977
2023-01-29T10:29:02.756Z,9.462988
2023-01-29T10:30:02.749Z,9.462991
2023-01-29T10:31:02.891Z,9.462990
2023-01-29T10:32:03.013Z,9.462893
2023-01-29T10:33:02.712Z,9.463012
2023-01-29T10:34:03.230Z,9.463045
2023-01-29T10:35:02.713Z,9.463020
2023-01-29T10:36:02.687Z,9.463039
2023-01-29T10:37:02.740Z,9.462970
2023-01-29T10:38:02.673Z,9.462967
2023-01-29T10:39:02.713Z,9.462928
2023-01-29T10:40:02.655Z,9.462937
2023-01-29T10:41:02.702Z,9.462891
2023-01-29T10:42:02.667Z,9.462926
2023-01-29T10:43:02.949Z,9.462890
2023-01-29T10:44:02.825Z,9.462989
2023-01-29T10:45:02.774Z,9.463011
2023-01-29T10:46:02.622Z,9.462955
2023-01-29T10:47:02.708Z,9.463008
2023-01-29T10:48:02.626Z,9.462991
2023-01-29T10:49:02.617Z,9.462987
2023-01-29T10:50:02.618Z,9.463046
2023-01-29T10:51:02.561Z,9.463024
2023-01-29T10:52:02.615Z,9.463016
2023-01-29T10:53:02.569Z,9.462863
2023-01-29T10:54:02.588Z,9.462860
2023-01-29T10:55:02.576Z,9.462923
2023-01-29T10:56:10.727Z,9.462940
2023-01-29T10:57:03.558Z,9.462950
2023-01-29T10:58:03.156Z,9.463086
2023-01-29T10:59:02.553Z,9.462924
2023-01-29T11:00:02.703Z,9.462932
2023-01-29T11:01:02.497Z,9.462983
2023-01-29T11:02:02.628Z,9.463012
2023-01-29T11:03:02.573Z,9.462953
2023-01-29T11:04:02.489Z,9.462971
2023-01-29T11:05:02.523Z,9.462938
2023-01-29T11:06:02.499Z,9.462895
2023-01-29T11:07:02.500Z,9.462927
2023-01-29T11:08:02.464Z,9.462923
2023-01-29T11:09:02.438Z,9.462983
2023-01-29T11:10:02.475Z,9.462927
2023-01-29T11:11:02.491Z,9.462973
2023-01-29T11:12:02.443Z,9.463003
2023-01-29T11:13:02.450Z,9.463073
2023-01-29T11:14:02.409Z,9.462982
2023-01-29T11:15:02.412Z,9.463001
2023-01-29T11:16:02.412Z,9.462993
2023-01-29T11:17:02.464Z,9.462911
2023-01-29T11:18:02.422Z,9.462967
2023-01-29T11:19:02.405Z,9.462912
2023-01-29T11:20:02.417Z,9.462893
2023-01-29T11:21:02.359Z,9.462886
2023-01-29T11:22:02.393Z,9.462864
2023-01-29T11:23:02.345Z,9.462953
2023-01-29T11:24:02.402Z,9.462879
2023-01-29T11:25:02.353Z,9.462942
2023-01-29T11:26:02.347Z,9.462945
2023-01-29T11:27:02.332Z,9.462885
2023-01-29T11:28:02.371Z,9.462868
2023-01-29T11:29:02.396Z,9.462977
2023-01-29T11:30:02.324Z,9.462947
2023-01-29T11:31:02.443Z,9.462945
2023-01-29T11:32:02.293Z,9.462948
2023-01-29T11:33:02.339Z,9.462959
2023-01-29T11:34:02.300Z,9.462832
2023-01-29T11:35:02.276Z,9.462885
2023-01-29T11:36:02.294Z,9.462923
2023-01-29T11:37:02.266Z,9.462957
2023-01-29T11:38:02.262Z,9.463016
2023-01-29T11:39:02.267Z,9.462994
2023-01-29T11:40:02.270Z,9.462947
2023-01-29T11:41:02.240Z,9.462935
2023-01-29T11:42:02.231Z,9.462880
2023-01-29T11:43:02.207Z,9.463070
2023-01-29T11:44:02.216Z,9.463008